Charleston, SC (29413)

11:55 AM EST on February 23, 2017 (GMT -0500)
Downtown Charleston | | Change Station

Elev 23 ft 32.79 °N, 79.95 °W | Updated 4 seconds ago

Partly Cloudy
Partly Cloudy
75.0 °F
Feels Like 77 °F
N
4.0
Wind Variable Wind from NW
Gusts 9.8 mph

Today
High -- | Low -- °F
--% Chance of Precip.
Yesterday
High -- | Low -- °F
Precip. -- in
Pressure 29.88 in
Visibility 10.0 miles
Clouds Scattered Clouds 3000 ft
Scattered Clouds 8000 ft
Mostly Cloudy 25000 ft
Heat Index 77 °F
Dew Point 60 °F
Humidity 59%
Rainfall 0.00 in
Snow Depth Not available.
6:54 AM 6:12 PM
Waning Crescent, 9% visible
METAR KCHS 231556Z 05012G16KT 10SM SCT030 SCT080 BKN250 23/15 A2988 RMK AO2 SLP117 T02330150
Pressure 29.88 in
Visibility 10.0 miles
Clouds Scattered Clouds 3000 ft
Scattered Clouds 8000 ft
Mostly Cloudy 25000 ft
Heat Index 77 °F
Dew Point 60 °F
Humidity 59%
Rainfall 0.00 in
Snow Depth Not available.
6:54 AM 6:12 PM
Waning Crescent, 9% visible
METAR KCHS 231556Z 05012G16KT 10SM SCT030 SCT080 BKN250 23/15 A2988 RMK AO2 SLP117 T02330150

Get Your Daily Forecast Email!

Thanks for signing up!

Be on the lookout for a verification email in your inbox.

You'll start receiving the daily forecast at 8 AM.

×

10-Day Weather Forecast

Almanac

Astronomy

Feb. 23, 2017 Rise Set
Actual Time
Civil Twilight
Nautical Twilight
Astronomical Twilight
Moon
Length of Visible Light
Length of Day
Tomorrow will be .
, % of the Moon is Illuminated

Today's Extremes

State Highs State Lows

Community

WunderPhotos

Upload Photos

1,962,540 photos uploaded!

WunderBlog® & News

Nearby

Air Quality

  Air Quality AQ Index Pollutant
Not available.

Snow Depth

Station Depth Elevation

Earthquake Activity

City Distance Mag. Time & Date
Minimum magnitude displayed is 2.5.

Coastal Water Temperatures

Place Temperature

Stations

Nearby Weather Stations

Station Location Temp. Windchill Dew Point Humidity Wind Precip. Elev Updated Type
                   

Watches & Warnings

There are currently no watches in effect.